METAR Data
IDs: Format: Raw Decoded Include TAF

Data at: 1944 UTC 26 Sep 2021

EPWR 261930Z 11006KT CAVOK 17/12 Q1019